Time;durP1;ratioP1;P1;durP2;ratioP2;P2;SDS_P1;SDS_P2;PMS_P1;PMS_P2;Temp;Humidity;BMP_temperature;BMP_pressure;BME280_temperature;BME280_humidity;BME280_pressure;Samples;Min_cycle;Max_cycle;Signal;HPM_P1;HPM_P2
2022/09/12 00:01:02;;;;;;;3.92;3.53;;;14.70;99.90;;;;;;5202158;28;20047;-73
2022/09/12 00:03:36;;;;;;;4.03;3.63;;;14.80;99.90;;;;;;5216775;28;20052;-73
2022/09/12 00:06:17;;;;;;;5.53;3.53;;;14.80;99.90;;;;;;5207663;28;20445;-73
2022/09/12 00:08:57;;;;;;;5.97;4.00;;;14.70;99.90;;;;;;5207343;28;20073;-73
2022/09/12 00:11:36;;;;;;;3.90;3.50;;;14.70;99.90;;;;;;5220833;28;20026;-73
2022/09/12 00:14:13;;;;;;;4.28;3.60;;;14.70;99.90;;;;;;5197450;28;20033;-72
2022/09/12 00:16:47;;;;;;;4.28;3.70;;;14.60;99.90;;;;;;5197988;28;20053;-73
2022/09/12 00:19:18;;;;;;;5.90;3.75;;;14.60;99.90;;;;;;5207776;28;20035;-73
2022/09/12 00:21:55;;;;;;;4.07;3.45;;;14.60;99.90;;;;;;5202096;28;20050;-73
2022/09/12 00:24:32;;;;;;;4.32;3.92;;;14.60;99.90;;;;;;5219503;28;20032;-73
2022/09/12 00:27:05;;;;;;;3.83;3.50;;;14.50;99.90;;;;;;5202179;28;20071;-74
2022/09/12 00:29:37;;;;;;;6.78;4.20;;;14.50;99.90;;;;;;5200137;28;20043;-74
2022/09/12 00:32:11;;;;;;;4.45;4.05;;;14.50;99.90;;;;;;5198246;28;20056;-73
2022/09/12 00:34:49;;;;;;;4.63;4.22;;;14.50;99.90;;;;;;5215894;28;20037;-73
2022/09/12 00:37:20;;;;;;;4.40;4.00;;;14.60;99.90;;;;;;5195753;28;20040;-73
2022/09/12 00:39:57;;;;;;;4.70;4.20;;;14.50;99.90;;;;;;5225259;28;20029;-72
2022/09/12 00:42:28;;;;;;;5.00;4.50;;;14.60;99.90;;;;;;5230326;28;20033;-72
2022/09/12 00:45:03;;;;;;;5.78;4.55;;;14.60;99.90;;;;;;5221295;28;20032;-72
2022/09/12 00:47:39;;;;;;;4.07;3.67;;;14.60;99.90;;;;;;5201090;28;20043;-71
2022/09/12 00:50:13;;;;;;;5.07;4.25;;;14.60;99.90;;;;;;5201204;28;20043;-72
2022/09/12 00:53:03;;;;;;;4.90;3.90;;;14.60;99.90;;;;;;5220852;28;20031;-72
2022/09/12 00:55:41;;;;;;;4.90;4.40;;;14.60;99.90;;;;;;5203540;28;20032;-72
2022/09/12 00:58:19;;;;;;;5.35;4.85;;;14.60;99.90;;;;;;5213699;28;20024;-73
2022/09/12 01:00:56;;;;;;;4.63;4.22;;;14.60;99.90;;;;;;5216902;28;20044;-72
2022/09/12 01:03:30;;;;;;;4.78;4.28;;;14.60;99.90;;;;;;5207579;28;20041;-73
2022/09/12 01:06:40;;;;;;;4.60;4.13;;;14.60;99.90;;;;;;5208333;28;20044;-72
2022/09/12 01:09:21;;;;;;;4.32;3.92;;;14.60;99.90;;;;;;5209030;28;20058;-72
2022/09/12 01:11:56;;;;;;;4.60;4.10;;;14.60;99.90;;;;;;5180553;28;20068;-73
2022/09/12 01:14:29;;;;;;;4.53;4.13;;;14.70;99.90;;;;;;5196406;28;20045;-72
2022/09/12 01:17:04;;;;;;;5.05;4.55;;;14.60;99.90;;;;;;5184316;28;20037;-72
2022/09/12 01:20:28;;;;;;;5.32;4.32;;;14.50;99.90;;;;;;5200329;28;20352;-72
2022/09/12 01:23:29;;;;;;;5.43;4.68;;;14.40;99.90;;;;;;5198241;28;20048;-74
2022/09/12 01:26:44;;;;;;;5.18;4.05;;;14.40;99.90;;;;;;5200833;28;20045;-72
2022/09/12 01:29:55;;;;;;;4.82;4.35;;;14.50;99.90;;;;;;5220222;28;20491;-73
2022/09/12 01:32:42;;;;;;;4.63;3.97;;;14.60;99.90;;;;;;5200243;28;20055;-73
2022/09/12 01:36:18;;;;;;;5.50;4.43;;;14.60;99.90;;;;;;5200933;28;20035;-71
2022/09/12 01:39:13;;;;;;;5.63;4.80;;;14.60;99.90;;;;;;5173218;28;20057;-72
2022/09/12 01:41:53;;;;;;;5.43;4.32;;;14.60;99.90;;;;;;5163494;28;20041;-73
2022/09/12 01:44:40;;;;;;;4.68;4.28;;;14.50;99.90;;;;;;5195981;28;20037;-72
2022/09/12 01:47:55;;;;;;;5.45;4.40;;;14.40;99.90;;;;;;5200422;28;20688;-74
2022/09/12 01:50:35;;;;;;;7.50;5.03;;;14.40;99.90;;;;;;5125296;28;20078;-73
2022/09/12 01:53:15;;;;;;;8.70;4.85;;;14.30;99.90;;;;;;5195954;28;20476;-73
2022/09/12 01:55:59;;;;;;;4.95;4.40;;;14.20;99.90;;;;;;5206946;28;20036;-74
2022/09/12 01:58:54;;;;;;;6.65;5.60;;;14.10;99.90;;;;;;5219391;28;20330;-72
2022/09/12 02:01:29;;;;;;;5.80;5.20;;;14.00;99.90;;;;;;5217375;28;20104;-73
2022/09/12 02:04:12;;;;;;;;;;;13.90;99.90;;;;;;5200455;28;20036;-73
2022/09/12 02:07:10;;;;;;;5.88;5.28;;;13.80;99.90;;;;;;5193246;28;19996;-72
2022/09/12 02:10:08;;;;;;;7.80;5.20;;;13.80;99.90;;;;;;5199201;28;20607;-74
2022/09/12 02:12:54;;;;;;;7.72;5.05;;;13.90;99.90;;;;;;5197306;28;20068;-74
2022/09/12 02:15:45;;;;;;;8.70;4.65;;;14.00;99.90;;;;;;5196440;28;20048;-72
2022/09/12 02:18:18;;;;;;;5.20;4.68;;;14.10;99.90;;;;;;5178790;28;20025;-72
2022/09/12 02:20:51;;;;;;;5.10;4.28;;;14.20;99.90;;;;;;5195406;28;20757;-74
2022/09/12 02:23:33;;;;;;;4.45;4.00;;;14.20;99.90;;;;;;5181728;28;20326;-72
2022/09/12 02:26:26;;;;;;;5.35;4.38;;;14.20;99.90;;;;;;5199333;28;20052;-72
2022/09/12 02:28:58;;;;;;;7.00;4.95;;;14.30;99.90;;;;;;5199788;28;20041;-72
2022/09/12 02:31:49;;;;;;;6.22;4.43;;;14.50;99.90;;;;;;5197996;28;20056;-73
2022/09/12 02:34:38;;;;;;;5.30;4.80;;;14.50;99.90;;;;;;5202155;28;20047;-74
2022/09/12 02:37:55;;;;;;;7.03;4.43;;;14.60;99.90;;;;;;5198087;28;20550;-72
2022/09/12 02:40:35;;;;;;;5.03;4.00;;;14.60;99.90;;;;;;5198865;28;20052;-74
2022/09/12 02:43:09;;;;;;;4.15;3.75;;;14.50;99.90;;;;;;5215505;28;20332;-73
2022/09/12 02:45:41;;;;;;;5.22;4.72;;;14.40;99.90;;;;;;5193725;28;20045;-73
2022/09/12 02:48:36;;;;;;;4.97;4.47;;;14.40;99.90;;;;;;5210879;28;20037;-73
2022/09/12 02:51:10;;;;;;;4.88;4.13;;;14.30;99.90;;;;;;5180752;28;20048;-73
2022/09/12 02:53:47;;;;;;;6.83;4.90;;;14.20;99.90;;;;;;5196165;28;20039;-73
2022/09/12 02:56:30;;;;;;;6.10;4.10;;;14.10;99.90;;;;;;5209085;28;20288;-73
2022/09/12 02:59:09;;;;;;;5.95;4.07;;;13.90;99.90;;;;;;5195596;28;20045;-72
2022/09/12 03:02:15;;;;;;;5.25;4.75;;;13.80;99.90;;;;;;5203670;28;20041;-73
2022/09/12 03:05:04;;;;;;;5.50;4.70;;;13.70;99.90;;;;;;5219683;28;20457;-72
2022/09/12 03:07:50;;;;;;;7.63;5.20;;;13.70;99.90;;;;;;5227182;28;20254;-73
2022/09/12 03:10:46;;;;;;;5.38;4.88;;;13.70;99.90;;;;;;5213989;28;20029;-72
2022/09/12 03:13:45;;;;;;;6.68;5.18;;;13.70;99.90;;;;;;5199829;28;20051;-74
2022/09/12 03:17:12;;;;;;;4.68;4.20;;;13.70;99.90;;;;;;5180763;28;20045;-72
2022/09/12 03:20:16;;;;;;;6.20;4.32;;;13.80;99.90;;;;;;5168084;28;20041;-72
2022/09/12 03:23:31;;;;;;;8.50;4.25;;;13.80;99.90;;;;;;5198466;28;20043;-72
2022/09/12 03:26:16;;;;;;;5.45;4.38;;;13.80;99.90;;;;;;5208935;28;20083;-72
2022/09/12 03:28:58;;;;;;;4.95;4.32;;;13.80;99.90;;;;;;5200238;28;20037;-72
2022/09/12 03:31:32;;;;;;;5.10;4.15;;;13.80;99.90;;;;;;5208046;28;20028;-72
2022/09/12 03:34:11;;;;;;;5.43;4.07;;;14.00;99.90;;;;;;5237655;28;20393;-72
2022/09/12 03:36:46;;;;;;;4.43;3.90;;;14.00;99.90;;;;;;5220444;28;20047;-74
2022/09/12 03:39:19;;;;;;;4.55;4.05;;;14.10;99.90;;;;;;5216342;28;20049;-73
2022/09/12 03:41:51;;;;;;;4.57;4.10;;;14.10;99.90;;;;;;5218691;28;20029;-72
2022/09/12 03:44:24;;;;;;;5.03;4.10;;;14.00;99.90;;;;;;5220371;28;20033;-73
2022/09/12 03:46:59;;;;;;;6.80;4.07;;;14.00;99.90;;;;;;5217592;28;20475;-72
2022/09/12 03:49:37;;;;;;;4.38;3.78;;;14.00;99.90;;;;;;5216922;28;20037;-72
2022/09/12 03:52:16;;;;;;;4.60;4.03;;;14.00;99.90;;;;;;5168699;28;20059;-73
2022/09/12 03:54:48;;;;;;;5.55;4.20;;;14.00;99.90;;;;;;5200272;28;20036;-72
2022/09/12 03:57:20;;;;;;;6.95;3.72;;;14.10;99.90;;;;;;5217470;28;20053;-72
2022/09/12 03:59:54;;;;;;;6.03;4.13;;;14.00;99.90;;;;;;5204521;28;20067;-72
2022/09/12 04:02:33;;;;;;;4.38;3.65;;;14.20;99.90;;;;;;5174317;28;1202240;-74
2022/09/12 04:05:07;;;;;;;4.93;3.67;;;14.30;99.90;;;;;;5213090;28;20422;-74
2022/09/12 04:07:44;;;;;;;7.15;4.82;;;14.30;99.90;;;;;;5222603;28;20059;-73
2022/09/12 04:10:18;;;;;;;6.10;4.63;;;14.30;99.90;;;;;;5210179;28;20040;-74
2022/09/12 04:12:49;;;;;;;4.68;3.97;;;14.40;99.90;;;;;;5218230;28;20104;-73
2022/09/12 04:15:21;;;;;;;4.43;3.88;;;14.40;99.90;;;;;;5218587;28;20029;-74
2022/09/12 04:18:04;;;;;;;5.28;4.05;;;14.20;99.90;;;;;;5217285;28;20053;-74
2022/09/12 04:20:39;;;;;;;4.53;4.03;;;14.10;99.90;;;;;;5219288;28;20067;-73
2022/09/12 04:23:17;;;;;;;5.95;4.25;;;14.10;99.90;;;;;;5234888;28;20041;-73
2022/09/12 04:25:56;;;;;;;5.63;4.00;;;14.10;99.90;;;;;;5216049;28;20040;-74
2022/09/12 04:28:31;;;;;;;4.78;4.07;;;14.10;99.90;;;;;;5219911;28;20454;-73
2022/09/12 04:31:22;;;;;;;7.15;4.50;;;14.10;99.90;;;;;;5228270;28;20041;-73
2022/09/12 04:33:59;;;;;;;4.75;4.00;;;14.10;99.90;;;;;;5219121;28;20028;-74
2022/09/12 04:36:36;;;;;;;7.25;4.57;;;14.10;99.90;;;;;;5194583;28;20047;-73
2022/09/12 04:39:16;;;;;;;5.18;3.55;;;14.30;99.90;;;;;;5215274;28;20037;-72
2022/09/12 04:41:50;;;;;;;5.50;3.80;;;14.30;99.90;;;;;;5223520;28;20036;-73
2022/09/12 04:44:27;;;;;;;5.22;3.97;;;14.40;99.90;;;;;;5225352;28;20056;-72
2022/09/12 04:47:05;;;;;;;4.78;3.75;;;14.40;99.90;;;;;;5218632;28;20357;-72
2022/09/12 04:49:36;;;;;;;5.68;3.88;;;14.40;99.90;;;;;;5216367;28;20047;-72
2022/09/12 04:52:08;;;;;;;4.63;3.78;;;14.40;99.90;;;;;;5203776;28;20048;-72
2022/09/12 04:54:40;;;;;;;7.90;3.53;;;14.40;99.90;;;;;;5197912;28;20032;-72
2022/09/12 04:57:12;;;;;;;4.05;3.65;;;14.50;99.90;;;;;;5235880;28;20051;-72
2022/09/12 04:59:48;;;;;;;6.30;3.22;;;14.60;99.90;;;;;;5211934;28;20053;-74
2022/09/12 05:02:26;;;;;;;4.35;3.55;;;14.70;99.90;;;;;;5213514;28;20033;-72
2022/09/12 05:05:01;;;;;;;3.95;3.55;;;14.80;99.90;;;;;;5189902;28;20040;-74
2022/09/12 05:07:35;;;;;;;4.68;3.78;;;14.90;99.90;;;;;;5174168;28;20053;-73
2022/09/12 05:10:13;;;;;;;4.57;3.70;;;14.90;99.90;;;;;;5208515;28;20031;-74
2022/09/12 05:12:49;;;;;;;4.00;3.45;;;15.00;99.90;;;;;;5201262;28;20052;-75
2022/09/12 05:15:24;;;;;;;4.20;3.25;;;15.00;99.90;;;;;;5216614;28;20045;-74
2022/09/12 05:17:57;;;;;;;3.97;3.25;;;15.10;99.90;;;;;;5199551;28;20051;-74
2022/09/12 05:20:35;;;;;;;6.33;3.80;;;15.20;99.90;;;;;;5200768;28;20037;-74
2022/09/12 05:23:06;;;;;;;4.45;3.33;;;15.20;99.90;;;;;;5183641;28;20258;-74
2022/09/12 05:25:37;;;;;;;4.35;3.20;;;15.30;99.90;;;;;;5184855;28;20039;-74
2022/09/12 05:28:14;;;;;;;5.28;3.45;;;15.40;99.90;;;;;;5231331;28;20047;-74
2022/09/12 05:31:09;;;;;;;4.82;3.63;;;15.40;99.90;;;;;;5218118;28;20029;-74
2022/09/12 05:33:52;;;;;;;4.53;3.85;;;15.50;99.90;;;;;;5209869;28;20045;-73
2022/09/12 05:36:34;;;;;;;4.22;3.55;;;15.50;99.90;;;;;;5217742;28;20039;-73
2022/09/12 05:39:05;;;;;;;3.47;3.17;;;15.60;99.90;;;;;;5184287;28;20078;-75
2022/09/12 05:41:40;;;;;;;3.53;3.22;;;15.50;99.90;;;;;;5233020;28;20384;-72
2022/09/12 05:44:13;;;;;;;4.85;3.58;;;15.40;99.90;;;;;;5199720;28;20041;-72
2022/09/12 05:46:50;;;;;;;3.85;3.55;;;15.50;99.90;;;;;;5216694;28;20043;-73
2022/09/12 05:49:23;;;;;;;4.35;3.58;;;15.60;99.90;;;;;;5197958;28;20045;-72
2022/09/12 05:51:58;;;;;;;4.70;3.55;;;15.60;99.90;;;;;;5214292;28;20045;-72
2022/09/12 05:54:40;;;;;;;4.47;3.50;;;15.70;99.90;;;;;;5219658;28;20037;-73
2022/09/12 05:57:13;;;;;;;4.25;3.53;;;15.70;99.90;;;;;;5222237;28;20053;-72
2022/09/12 05:59:48;;;;;;;5.20;3.67;;;15.60;99.90;;;;;;5221215;28;20045;-73
2022/09/12 06:02:25;;;;;;;4.25;3.70;;;15.50;99.90;;;;;;5216689;28;20257;-74
2022/09/12 06:04:59;;;;;;;4.50;3.35;;;15.40;99.90;;;;;;5181998;28;20056;-75
2022/09/12 06:07:31;;;;;;;6.72;3.72;;;15.40;99.90;;;;;;5191301;28;20074;-74
2022/09/12 06:10:06;;;;;;;4.68;3.83;;;15.40;99.90;;;;;;5216457;28;20584;-73
2022/09/12 06:12:38;;;;;;;6.88;3.47;;;15.50;99.90;;;;;;5193703;28;20055;-73
2022/09/12 06:15:10;;;;;;;5.57;3.97;;;15.60;99.90;;;;;;5190052;28;20041;-73
2022/09/12 06:17:43;;;;;;;4.07;3.20;;;15.70;99.90;;;;;;5214597;28;20587;-73
2022/09/12 06:20:19;;;;;;;3.88;3.20;;;15.80;99.90;;;;;;5188382;28;20024;-72
2022/09/12 06:22:57;;;;;;;3.80;3.10;;;15.90;99.90;;;;;;5189032;28;20530;-73
2022/09/12 06:25:29;;;;;;;5.30;3.60;;;15.90;99.90;;;;;;5223130;28;20027;-72
2022/09/12 06:28:01;;;;;;;6.03;3.75;;;15.90;99.90;;;;;;5220095;28;20041;-72
2022/09/12 06:30:32;;;;;;;4.15;3.40;;;16.00;99.90;;;;;;5206484;28;20431;-72
2022/09/12 06:33:05;;;;;;;4.65;3.95;;;16.20;99.90;;;;;;5213373;28;20341;-72
2022/09/12 06:35:42;;;;;;;5.50;3.22;;;16.40;99.90;;;;;;5181219;28;20064;-73
2022/09/12 06:38:16;;;;;;;5.55;3.42;;;16.50;99.90;;;;;;5198174;28;20438;-72
2022/09/12 06:40:50;;;;;;;4.22;3.13;;;16.50;99.90;;;;;;5199323;28;20037;-72
2022/09/12 06:43:24;;;;;;;3.45;3.10;;;16.50;99.90;;;;;;5216468;28;20044;-72
2022/09/12 06:45:58;;;;;;;4.18;3.40;;;16.60;99.90;;;;;;5215559;28;20532;-72
2022/09/12 06:48:30;;;;;;;6.22;3.70;;;16.40;99.90;;;;;;5199179;28;20029;-72
2022/09/12 06:51:19;;;;;;;5.43;3.08;;;16.40;99.90;;;;;;5198568;28;20239;-72
2022/09/12 06:53:57;;;;;;;4.25;3.22;;;16.60;99.90;;;;;;5188117;28;20044;-72
2022/09/12 06:56:36;;;;;;;4.90;3.33;;;16.70;99.90;;;;;;5198296;28;20036;-72
2022/09/12 06:59:11;;;;;;;3.55;2.88;;;16.80;99.90;;;;;;5214644;28;20037;-73
2022/09/12 07:01:44;;;;;;;3.97;3.58;;;16.80;99.90;;;;;;5197698;28;20036;-73
2022/09/12 07:04:21;;;;;;;3.85;2.97;;;16.90;99.90;;;;;;5204759;28;20041;-73
2022/09/12 07:07:00;;;;;;;4.03;3.03;;;17.00;99.90;;;;;;5228884;28;20064;-72
2022/09/12 07:09:35;;;;;;;3.40;2.60;;;17.10;99.90;;;;;;5214035;28;20045;-72
2022/09/12 07:12:06;;;;;;;7.78;3.85;;;17.20;99.90;;;;;;5215387;28;20032;-72
2022/09/12 07:14:40;;;;;;;3.85;3.17;;;17.30;99.90;;;;;;5214371;28;20052;-73
2022/09/12 07:17:15;;;;;;;4.43;3.58;;;17.30;99.90;;;;;;5231354;28;20029;-72
2022/09/12 07:19:47;;;;;;;3.85;3.33;;;17.00;99.90;;;;;;5198241;28;20037;-72
2022/09/12 07:22:21;;;;;;;3.60;3.30;;;17.10;99.90;;;;;;5216619;28;20032;-72
2022/09/12 07:24:56;;;;;;;3.45;3.10;;;17.00;99.90;;;;;;5206459;28;20313;-73
2022/09/12 07:27:30;;;;;;;3.38;2.70;;;17.20;99.90;;;;;;5201818;28;20377;-72
2022/09/12 07:30:04;;;;;;;4.45;3.22;;;17.30;99.90;;;;;;5200037;28;20040;-73
2022/09/12 07:32:46;;;;;;;4.18;3.88;;;17.30;99.90;;;;;;5200713;28;20044;-72
2022/09/12 07:35:23;;;;;;;4.60;3.33;;;17.40;99.90;;;;;;5214531;28;20035;-72
2022/09/12 07:37:56;;;;;;;4.60;2.80;;;17.50;99.90;;;;;;5233056;28;20029;-72
2022/09/12 07:40:28;;;;;;;5.43;3.50;;;17.60;99.90;;;;;;5222974;28;20053;-72
2022/09/12 07:42:59;;;;;;;3.92;3.10;;;17.40;99.90;;;;;;5211390;28;20336;-72
2022/09/12 07:45:33;;;;;;;3.95;3.17;;;17.60;99.90;;;;;;5214800;28;20497;-71
2022/09/12 07:48:10;;;;;;;4.85;3.20;;;17.50;99.90;;;;;;5219317;28;20045;-74
2022/09/12 07:50:41;;;;;;;6.45;3.70;;;17.50;99.90;;;;;;5209456;28;20044;-72
2022/09/12 07:53:17;;;;;;;5.32;3.35;;;17.50;99.90;;;;;;5220838;28;20027;-73
2022/09/12 07:56:01;;;;;;;3.75;3.20;;;17.30;99.90;;;;;;5208775;28;20040;-74
2022/09/12 07:58:39;;;;;;;3.58;3.08;;;17.70;99.90;;;;;;5202710;28;20049;-74
2022/09/12 08:01:25;;;;;;;4.05;3.30;;;18.00;99.90;;;;;;5201037;28;20036;-74
2022/09/12 08:04:10;;;;;;;3.53;3.20;;;17.80;99.90;;;;;;5235555;28;20029;-74
2022/09/12 08:06:44;;;;;;;9.13;3.30;;;18.00;99.90;;;;;;5192786;28;20057;-74
2022/09/12 08:09:17;;;;;;;6.13;3.78;;;18.30;99.90;;;;;;5225825;28;20044;-73
2022/09/12 08:11:51;;;;;;;3.70;3.20;;;18.40;99.90;;;;;;5226639;28;20075;-75
2022/09/12 08:14:23;;;;;;;3.92;3.22;;;18.30;99.90;;;;;;5235090;28;20040;-74
2022/09/12 08:16:58;;;;;;;4.72;2.97;;;18.30;99.90;;;;;;5239882;28;20215;-74
2022/09/12 08:19:31;;;;;;;3.53;2.83;;;18.50;99.90;;;;;;5242905;28;20024;-74
2022/09/12 08:22:03;;;;;;;3.70;3.28;;;18.50;99.90;;;;;;5250637;28;20537;-74
2022/09/12 08:24:34;;;;;;;3.10;2.75;;;18.50;99.90;;;;;;5219613;28;20054;-73
2022/09/12 08:27:10;;;;;;;3.75;2.97;;;18.50;99.90;;;;;;5232867;28;20517;-74
2022/09/12 08:29:44;;;;;;;3.30;2.65;;;18.40;99.90;;;;;;5239350;28;20028;-74
2022/09/12 08:32:20;;;;;;;3.65;3.15;;;18.70;99.90;;;;;;5220008;28;20043;-73
2022/09/12 08:34:56;;;;;;;3.38;3.08;;;19.30;99.90;;;;;;5248283;28;20372;-75
2022/09/12 08:37:36;;;;;;;3.97;3.05;;;19.20;99.90;;;;;;5241747;28;20512;-73
2022/09/12 08:40:15;;;;;;;3.70;2.80;;;18.90;99.90;;;;;;5238644;28;20040;-74
2022/09/12 08:43:06;;;;;;;3.70;3.15;;;19.10;99.90;;;;;;5183919;28;20045;-74
2022/09/12 08:45:59;;;;;;;3.72;2.60;;;18.80;99.90;;;;;;5200984;28;20386;-74
2022/09/12 08:48:33;;;;;;;4.85;3.10;;;18.60;99.90;;;;;;5219025;28;20044;-74
2022/09/12 08:51:14;;;;;;;;;;;18.60;99.90;;;;;;5244800;28;20028;-74
2022/09/12 08:53:55;;;;;;;3.08;2.55;;;18.70;99.90;;;;;;5221806;28;20260;-73
2022/09/12 08:56:34;;;;;;;3.15;2.75;;;18.60;99.90;;;;;;5217336;28;20036;-74
2022/09/12 08:59:08;;;;;;;3.70;2.60;;;18.80;99.90;;;;;;5218991;28;20033;-74
2022/09/12 09:01:44;;;;;;;3.10;2.67;;;19.30;99.90;;;;;;5211461;28;20040;-73
2022/09/12 09:04:53;;;;;;;3.38;2.60;;;19.40;99.90;;;;;;5198837;28;20055;-73
2022/09/12 09:08:01;;;;;;;3.92;2.78;;;19.30;99.90;;;;;;5207991;28;20033;-73
2022/09/12 09:10:52;;;;;;;3.33;2.53;;;19.20;99.90;;;;;;5230420;28;20044;-72
2022/09/12 09:16:45;;;;;;;4.97;2.45;;;19.60;99.90;;;;;;5219885;28;20028;-73
2022/09/12 09:19:31;;;;;;;2.40;2.20;;;19.90;99.90;;;;;;5216871;28;20332;-73
2022/09/12 09:22:39;;;;;;;2.83;2.47;;;20.20;99.90;;;;;;5237058;28;20028;-73
2022/09/12 09:25:27;;;;;;;2.80;2.50;;;20.20;99.90;;;;;;5199669;28;20040;-72
2022/09/12 09:28:33;;;;;;;2.88;2.60;;;20.30;99.90;;;;;;5179303;28;20046;-73
2022/09/12 09:31:19;;;;;;;3.00;2.70;;;20.90;99.90;;;;;;5196691;28;20379;-73
2022/09/12 09:33:56;;;;;;;3.30;2.40;;;21.30;99.90;;;;;;5178161;28;20479;-71
2022/09/12 09:37:13;;;;;;;2.20;2.00;;;20.70;99.90;;;;;;5234322;28;20039;-74
2022/09/12 09:40:26;;;;;;;2.33;2.13;;;20.70;99.90;;;;;;5202785;28;20053;-74
2022/09/12 09:43:22;;;;;;;2.65;2.45;;;20.30;99.90;;;;;;5217547;28;20048;-74
2022/09/12 09:45:56;;;;;;;2.53;2.20;;;20.00;99.90;;;;;;5216596;28;20029;-73
2022/09/12 09:48:40;;;;;;;2.92;2.65;;;20.00;99.90;;;;;;5215634;28;20245;-73
2022/09/12 09:51:19;;;;;;;3.95;2.35;;;20.10;99.90;;;;;;5216686;28;20040;-74
2022/09/12 09:54:08;;;;;;;2.95;2.53;;;20.10;99.90;;;;;;5200521;28;20059;-74
2022/09/12 09:56:41;;;;;;;2.38;2.17;;;20.60;99.90;;;;;;5196310;28;20033;-73
2022/09/12 09:59:18;;;;;;;2.88;2.33;;;21.00;99.90;;;;;;5215542;28;20467;-73
2022/09/12 10:01:55;;;;;;;3.20;2.20;;;21.60;99.90;;;;;;5204252;28;20033;-74
2022/09/12 10:04:35;;;;;;;3.45;2.40;;;21.40;99.90;;;;;;5208900;28;20025;-74
2022/09/12 10:07:23;;;;;;;2.58;2.30;;;20.90;99.90;;;;;;5196753;28;20333;-73
2022/09/12 10:10:16;;;;;;;3.30;2.90;;;20.60;99.90;;;;;;5215727;28;20036;-73
2022/09/12 10:13:08;;;;;;;3.53;2.83;;;20.10;99.90;;;;;;5193500;28;20047;-73
2022/09/12 10:15:58;;;;;;;3.25;2.70;;;19.80;99.90;;;;;;5219331;28;20029;-74
2022/09/12 10:18:41;;;;;;;3.13;2.60;;;19.90;99.90;;;;;;5236337;28;20055;-74
2022/09/12 10:21:44;;;;;;;6.15;2.38;;;20.10;99.90;;;;;;5238339;28;20040;-73
2022/09/12 10:24:31;;;;;;;3.67;2.70;;;20.30;99.90;;;;;;5215660;28;20041;-73
2022/09/12 10:27:14;;;;;;;3.60;2.35;;;20.80;99.90;;;;;;5217072;28;20513;-73
2022/09/12 10:29:48;;;;;;;2.67;2.40;;;21.70;99.90;;;;;;5215446;28;20079;-75
2022/09/12 10:32:46;;;;;;;2.83;2.50;;;23.30;99.90;;;;;;5213651;28;20035;-74
2022/09/12 10:35:22;;;;;;;2.45;2.25;;;23.30;99.90;;;;;;5215312;28;20035;-73
2022/09/12 10:38:05;;;;;;;2.85;2.47;;;23.00;99.90;;;;;;5215661;28;20049;-73
2022/09/12 10:40:42;;;;;;;2.15;1.95;;;23.10;99.90;;;;;;5198053;28;20045;-73
2022/09/12 10:43:36;;;;;;;3.55;2.42;;;22.60;99.90;;;;;;5184207;28;20662;-74
2022/09/12 10:46:18;;;;;;;2.10;1.80;;;23.00;99.90;;;;;;5225153;28;20040;-73
2022/09/12 10:49:12;;;;;;;2.17;1.98;;;24.30;99.90;;;;;;5236673;28;20032;-74
2022/09/12 10:51:46;;;;;;;2.45;2.22;;;23.60;99.90;;;;;;5200120;28;20037;-72
2022/09/12 10:54:24;;;;;;;2.60;1.90;;;23.10;99.90;;;;;;5210018;28;20047;-72
2022/09/12 10:57:53;;;;;;;2.08;1.63;;;23.60;99.90;;;;;;5193481;28;20350;-73
2022/09/12 11:00:26;;;;;;;2.28;2.08;;;23.70;99.90;;;;;;5198258;28;20025;-73
2022/09/12 11:03:23;;;;;;;2.78;2.20;;;23.10;99.90;;;;;;5190429;28;20052;-74
2022/09/12 11:05:58;;;;;;;2.35;2.15;;;22.10;99.90;;;;;;5219793;28;20079;-72
2022/09/12 11:08:42;;;;;;;2.28;2.10;;;23.00;99.90;;;;;;5238714;28;20052;-71
2022/09/12 11:11:45;;;;;;;2.80;2.20;;;24.40;99.90;;;;;;5247430;28;20039;-73
2022/09/12 11:15:09;;;;;;;2.38;1.92;;;25.70;99.90;;;;;;5214144;28;20044;-74
2022/09/12 11:18:00;;;;;;;3.35;2.33;;;25.70;99.90;;;;;;5214247;28;20045;-74
2022/09/12 11:21:02;;;;;;;2.38;2.17;;;24.50;99.90;;;;;;5219037;28;20029;-74
2022/09/12 11:23:46;;;;;;;4.45;2.00;;;24.10;99.90;;;;;;5183567;28;20029;-74
2022/09/12 11:26:26;;;;;;;2.07;1.87;;;24.40;99.90;;;;;;5238224;28;20110;-74
2022/09/12 11:29:08;;;;;;;2.30;1.90;;;25.40;99.90;;;;;;5240742;28;20614;-74
2022/09/12 11:32:16;;;;;;;2.67;2.28;;;26.90;99.90;;;;;;5219181;28;20036;-74
2022/09/12 11:34:57;;;;;;;2.72;2.42;;;27.80;99.90;;;;;;5214786;28;20051;-73
2022/09/12 11:37:50;;;;;;;1.67;1.58;;;27.40;99.90;;;;;;5260979;28;20035;-74
2022/09/12 11:41:30;;;;;;;2.08;1.52;;;26.60;99.90;;;;;;5235974;28;20024;-72
2022/09/12 11:44:37;;;;;;;1.92;1.67;;;27.50;99.90;;;;;;5245854;28;20358;-73
2022/09/12 11:47:19;;;;;;;2.33;2.00;;;28.60;99.90;;;;;;5227138;28;20086;-73
2022/09/12 11:50:03;;;;;;;3.42;1.80;;;28.10;99.90;;;;;;5223159;28;20463;-73
2022/09/12 11:52:43;;;;;;;2.70;2.00;;;27.10;99.90;;;;;;5239100;28;20025;-72
2022/09/12 11:55:26;;;;;;;2.00;1.73;;;28.70;99.90;;;;;;5206057;28;20029;-73
2022/09/12 11:57:58;;;;;;;1.70;1.60;;;30.00;99.90;;;;;;5207110;28;20030;-73
2022/09/12 12:00:41;;;;;;;3.53;1.90;;;29.00;99.90;;;;;;5239985;28;20038;-73
2022/09/12 12:03:41;;;;;;;4.13;1.75;;;30.30;99.90;;;;;;5222317;28;20032;-72
2022/09/12 12:07:09;;;;;;;1.90;1.80;;;31.30;99.90;;;;;;5212686;28;20055;-73
2022/09/12 12:09:50;;;;;;;2.65;1.90;;;31.20;99.90;;;;;;5156990;28;20053;-72
2022/09/12 12:12:28;;;;;;;2.10;1.70;;;29.00;99.90;;;;;;5140780;28;20060;-72
2022/09/12 12:15:06;;;;;;;2.40;1.98;;;28.80;99.90;;;;;;5144408;28;20038;-72
2022/09/12 12:17:42;;;;;;;2.40;2.20;;;28.70;99.90;;;;;;5139438;28;20567;-73
2022/09/12 12:20:18;;;;;;;2.65;2.17;;;28.80;99.90;;;;;;5137907;28;20057;-72
2022/09/12 12:22:56;;;;;;;2.08;1.73;;;29.60;99.90;;;;;;5156051;28;20042;-73
2022/09/12 12:25:53;;;;;;;2.40;1.85;;;29.90;99.90;;;;;;5122947;28;20469;-72
2022/09/12 12:28:49;;;;;;;2.00;1.40;;;27.60;99.90;;;;;;5141803;28;20045;-71
2022/09/12 12:31:23;;;;;;;1.95;1.60;;;29.00;99.90;;;;;;5139222;28;20050;-72
2022/09/12 12:34:07;;;;;;;2.83;1.90;;;28.50;99.90;;;;;;5136373;28;20038;-72
2022/09/12 12:36:41;;;;;;;1.80;1.70;;;28.70;99.90;;;;;;5143459;28;20030;-74
2022/09/12 12:39:39;;;;;;;2.05;1.65;;;27.60;99.90;;;;;;5142986;28;20634;-72
2022/09/12 12:42:34;;;;;;;1.90;1.60;;;27.40;99.90;;;;;;5114507;28;20236;-73
2022/09/12 12:45:08;;;;;;;1.65;1.50;;;27.10;99.90;;;;;;5161455;28;20509;-72
2022/09/12 12:48:12;;;;;;;3.75;1.60;;;26.90;99.90;;;;;;5218319;28;20041;-72
2022/09/12 12:50:45;;;;;;;1.70;1.60;;;28.10;99.90;;;;;;5201732;28;20456;-72
2022/09/12 12:53:24;;;;;;;1.52;1.42;;;28.40;99.90;;;;;;5213817;28;20562;-72
2022/09/12 12:56:01;;;;;;;1.50;1.40;;;27.50;99.90;;;;;;5184755;28;20045;-73
2022/09/12 12:58:41;;;;;;;1.70;1.60;;;25.60;99.90;;;;;;5203650;28;20063;-72
2022/09/12 13:01:21;;;;;;;1.98;1.70;;;24.90;99.90;;;;;;5203957;28;20023;-73
2022/09/12 13:04:03;;;;;;;1.30;1.20;;;25.10;99.90;;;;;;5186545;28;20047;-73
2022/09/12 13:06:45;;;;;;;1.80;1.70;;;26.20;99.90;;;;;;5192692;28;20057;-73
2022/09/12 13:09:42;;;;;;;2.45;1.50;;;26.00;99.90;;;;;;5203429;28;20047;-72
2022/09/12 13:12:35;;;;;;;1.52;1.30;;;26.40;99.90;;;;;;5203668;28;20033;-72
2022/09/12 13:15:35;;;;;;;2.45;1.45;;;26.90;99.90;;;;;;5200384;28;20051;-73
2022/09/12 13:18:17;;;;;;;2.05;1.85;;;27.80;99.90;;;;;;5196976;28;20030;-73
2022/09/12 13:21:09;;;;;;;1.60;1.50;;;27.80;99.90;;;;;;5194766;28;20037;-73
2022/09/12 13:23:41;;;;;;;1.70;1.60;;;28.70;99.90;;;;;;5201401;28;20029;-72
2022/09/12 13:26:24;;;;;;;2.92;1.70;;;29.10;99.90;;;;;;5192198;28;20055;-73
2022/09/12 13:29:22;;;;;;;2.08;1.88;;;27.00;99.90;;;;;;5193661;28;20407;-72
2022/09/12 13:32:00;;;;;;;3.65;2.17;;;24.50;99.90;;;;;;5196835;28;20037;-74
2022/09/12 13:34:59;;;;;;;1.80;1.70;;;25.30;99.90;;;;;;5198101;28;20041;-74
2022/09/12 13:38:10;;;;;;;2.72;1.98;;;26.10;99.90;;;;;;5214287;28;20033;-73
2022/09/12 13:41:18;;;;;;;2.70;1.70;;;26.60;99.90;;;;;;5148173;28;20385;-74
2022/09/12 13:43:53;;;;;;;1.70;1.60;;;28.90;99.90;;;;;;5150707;28;20050;-73
2022/09/12 13:46:31;;;;;;;1.50;1.40;;;28.70;99.90;;;;;;5148794;28;20050;-73
2022/09/12 13:49:33;;;;;;;2.30;1.50;;;30.20;99.90;;;;;;5134853;28;20030;-73
2022/09/12 13:52:16;;;;;;;3.42;2.00;;;30.20;99.90;;;;;;5150481;28;20044;-73
2022/09/12 13:54:51;;;;;;;2.03;1.80;;;30.50;99.90;;;;;;5147818;28;20092;-73
2022/09/12 13:57:40;;;;;;;1.90;1.70;;;30.20;99.90;;;;;;5151128;28;20500;-73
2022/09/12 14:00:18;;;;;;;1.77;1.67;;;28.70;99.90;;;;;;5152284;28;20038;-73
2022/09/12 14:05:06;;;;;;;2.17;1.73;;;29.00;99.90;;;;;;5136032;28;20201;-73
2022/09/12 14:05:54;;;;;;;2.85;1.60;;;28.30;99.90;;;;;;5141932;28;20054;-73
2022/09/12 14:08:29;;;;;;;2.33;1.65;;;27.50;99.90;;;;;;5147122;28;20038;-73
2022/09/12 14:11:09;;;;;;;4.93;1.98;;;26.90;99.90;;;;;;5151782;28;20038;-73